Time;durP1;ratioP1;P1;durP2;ratioP2;P2;SDS_P1;SDS_P2;PMS_P1;PMS_P2;Temp;Humidity;BMP_temperature;BMP_pressure;BME280_temperature;BME280_humidity;BME280_pressure;Samples;Min_cycle;Max_cycle;Signal;HPM_P1;HPM_P2
2022/10/18 00:02:27;;;;;;;5.40;2.80;;;17.90;99.90;;;;;;1944494;72;22216;-87
2022/10/18 00:05:18;;;;;;;7.05;2.75;;;17.80;99.90;;;;;;1856445;77;21202;-87
2022/10/18 00:08:09;;;;;;;6.40;2.80;;;17.80;99.90;;;;;;1899486;75;21166;-87
2022/10/18 00:11:00;;;;;;;6.58;2.55;;;17.70;99.90;;;;;;1907632;75;21039;-88
2022/10/18 00:13:51;;;;;;;4.58;3.10;;;17.70;99.90;;;;;;1888141;75;21127;-87
2022/10/18 00:16:42;;;;;;;4.67;2.92;;;17.70;99.90;;;;;;1884389;75;21094;-87
2022/10/18 00:22:13;;;;;;;6.20;2.90;;;17.60;99.90;;;;;;1974138;72;22251;-87
2022/10/18 00:27:46;;;;;;;3.60;2.58;;;17.60;99.90;;;;;;1938549;72;22248;-87
2022/10/18 00:30:38;;;;;;;7.53;3.17;;;17.60;99.90;;;;;;1905030;75;21547;-87
2022/10/18 00:33:29;;;;;;;5.20;2.98;;;17.60;99.90;;;;;;1884768;75;21114;-87
2022/10/18 00:36:20;;;;;;;5.37;3.02;;;17.60;99.90;;;;;;1903501;75;21088;-87
2022/10/18 00:41:55;;;;;;;7.92;3.58;;;17.50;99.90;;;;;;1946350;72;22137;-87
2022/10/18 00:45:15;;;;;;;6.67;3.22;;;17.50;99.90;;;;;;1924976;73;21581;-87
2022/10/18 00:48:06;;;;;;;5.90;3.70;;;17.50;99.90;;;;;;1927154;73;21213;-87
2022/10/18 00:50:57;;;;;;;7.35;3.60;;;17.50;99.90;;;;;;1939805;73;21055;-87
2022/10/18 00:53:49;;;;;;;5.03;3.27;;;17.50;99.90;;;;;;1930884;73;21118;-88
2022/10/18 00:56:43;;;;;;;4.45;3.35;;;17.50;99.90;;;;;;1916407;75;21094;-89
2022/10/18 00:59:34;;;;;;;5.97;3.60;;;17.40;99.90;;;;;;1928777;73;21093;-88
2022/10/18 01:02:28;;;;;;;4.17;3.42;;;17.40;99.90;;;;;;1935084;73;21195;-87
2022/10/18 01:05:20;;;;;;;6.25;3.55;;;17.50;99.90;;;;;;1931773;73;21106;-87
2022/10/18 01:08:31;;;;;;;7.40;3.55;;;17.50;99.90;;;;;;1927996;73;21098;-88
2022/10/18 01:11:54;;;;;;;6.65;3.72;;;17.40;99.90;;;;;;1930169;73;21129;-88
2022/10/18 01:14:49;;;;;;;5.58;3.58;;;17.40;99.90;;;;;;1937865;73;21129;-87
2022/10/18 01:17:44;;;;;;;6.05;3.42;;;17.40;99.90;;;;;;1917373;75;21054;-88
2022/10/18 01:21:01;;;;;;;4.53;3.50;;;17.40;99.90;;;;;;1932695;73;21208;-88
2022/10/18 01:27:22;;;;;;;5.90;3.25;;;17.40;99.90;;;;;;1945062;72;22618;-87
2022/10/18 01:30:43;;;;;;;11.10;8.40;;;17.30;99.90;;;;;;1888831;75;21110;-86
2022/10/18 01:33:38;;;;;;;5.72;3.60;;;17.30;99.90;;;;;;1891363;75;21063;-86
2022/10/18 01:36:32;;;;;;;6.05;3.30;;;17.10;99.90;;;;;;1912659;75;21653;-87
2022/10/18 01:39:26;;;;;;;7.12;3.20;;;17.00;99.90;;;;;;1884832;75;21074;-87
2022/10/18 01:42:20;;;;;;;5.45;3.65;;;16.90;99.90;;;;;;1901663;75;21055;-87
2022/10/18 01:45:14;;;;;;;6.65;3.85;;;16.90;99.90;;;;;;1903004;75;21062;-87
2022/10/18 01:48:06;;;;;;;4.67;3.70;;;16.90;99.90;;;;;;1883822;75;21154;-88
2022/10/18 01:50:58;;;;;;;5.75;3.95;;;16.90;99.90;;;;;;1894114;75;21579;-88
2022/10/18 01:53:49;;;;;;;5.03;3.45;;;16.90;99.90;;;;;;1884687;75;21574;-88
2022/10/18 01:56:45;;;;;;;4.97;3.25;;;16.90;99.90;;;;;;1905414;75;21149;-88
2022/10/18 01:59:41;;;;;;;8.43;3.60;;;16.90;99.90;;;;;;1888311;75;21541;-88
2022/10/18 02:02:42;;;;;;;5.62;3.35;;;16.80;99.90;;;;;;1906330;75;21058;-87
2022/10/18 02:05:37;;;;;;;5.03;3.60;;;16.80;99.90;;;;;;1894355;75;21067;-87
2022/10/18 02:08:32;;;;;;;7.25;3.42;;;16.80;99.90;;;;;;1901051;75;21180;-87
2022/10/18 02:11:24;;;;;;;5.25;3.52;;;16.80;99.90;;;;;;1903597;75;21178;-87
2022/10/18 02:14:18;;;;;;;6.08;3.72;;;16.80;99.90;;;;;;1900556;75;21323;-87
2022/10/18 02:17:12;;;;;;;5.08;3.45;;;16.80;99.90;;;;;;1907846;75;21058;-88
2022/10/18 02:22:44;;;;;;;6.72;4.12;;;16.80;99.90;;;;;;1943243;72;22107;-87
2022/10/18 02:25:37;;;;;;;4.70;3.75;;;16.80;99.90;;;;;;1897794;75;21234;-87
2022/10/18 02:28:28;;;;;;;6.65;4.50;;;16.80;99.90;;;;;;1892298;75;21050;-87
2022/10/18 02:31:22;;;;;;;8.50;4.30;;;16.70;99.90;;;;;;1901013;75;21084;-87
2022/10/18 02:36:56;;;;;;;6.42;4.45;;;16.60;99.90;;;;;;1924256;72;22294;-87
2022/10/18 02:42:28;;;;;;;4.78;3.98;;;16.40;99.90;;;;;;1934932;72;22541;-87
2022/10/18 02:45:21;;;;;;;8.40;4.10;;;16.40;99.90;;;;;;1903300;75;21149;-87
2022/10/18 02:48:12;;;;;;;10.25;4.03;;;16.40;99.90;;;;;;1895543;75;21105;-87
2022/10/18 02:51:03;;;;;;;7.40;3.98;;;16.50;99.90;;;;;;1902017;75;21102;-87
2022/10/18 02:53:54;;;;;;;6.40;3.83;;;16.40;99.90;;;;;;1898904;75;21068;-88
2022/10/18 02:56:45;;;;;;;6.95;3.90;;;16.40;99.90;;;;;;1883715;75;21192;-87
2022/10/18 03:02:14;;;;;;;14.70;10.75;;;16.40;99.90;;;;;;1956961;72;22377;-86
2022/10/18 03:05:05;;;;;;;7.08;4.75;;;16.40;99.90;;;;;;1923983;73;21233;-86
2022/10/18 03:07:58;;;;;;;7.97;3.60;;;16.40;99.90;;;;;;1918888;73;21091;-87
2022/10/18 03:10:49;;;;;;;7.22;4.53;;;16.40;99.90;;;;;;1917427;75;21605;-87
2022/10/18 03:13:40;;;;;;;10.80;5.03;;;16.20;99.90;;;;;;1937454;73;21133;-87
2022/10/18 03:16:32;;;;;;;6.05;4.60;;;16.20;99.90;;;;;;1942561;73;21047;-87
2022/10/18 03:19:23;;;;;;;7.67;4.65;;;16.10;99.90;;;;;;1934832;73;21047;-87
2022/10/18 03:22:14;;;;;;;10.98;5.80;;;16.10;99.90;;;;;;1933765;73;21107;-87
2022/10/18 03:25:06;;;;;;;7.05;6.05;;;16.00;99.90;;;;;;1926687;73;21087;-87
2022/10/18 03:27:57;;;;;;;7.62;6.25;;;16.00;99.90;;;;;;1928429;73;21047;-87
2022/10/18 03:30:48;;;;;;;8.60;6.28;;;16.10;99.90;;;;;;1928556;73;21080;-87
2022/10/18 03:33:39;;;;;;;8.90;6.30;;;16.10;99.90;;;;;;1917450;75;21124;-87
2022/10/18 03:36:32;;;;;;;9.35;5.70;;;16.10;99.90;;;;;;1929927;73;21095;-87
2022/10/18 03:39:23;;;;;;;7.40;5.78;;;16.10;99.90;;;;;;1936690;73;21052;-88
2022/10/18 03:42:14;;;;;;;6.95;4.70;;;16.10;99.90;;;;;;1914037;73;21178;-87
2022/10/18 03:47:45;;;;;;;7.10;4.70;;;16.10;99.90;;;;;;1941551;72;22134;-87
2022/10/18 03:50:36;;;;;;;7.67;5.00;;;16.10;99.90;;;;;;1919532;73;21110;-89
2022/10/18 03:53:27;;;;;;;8.73;5.17;;;16.00;99.90;;;;;;1924296;73;21109;-87
2022/10/18 03:56:18;;;;;;;6.17;5.05;;;15.90;99.90;;;;;;1919915;73;21080;-88
2022/10/18 03:59:09;;;;;;;6.95;5.40;;;15.90;99.90;;;;;;1917811;75;21122;-87
2022/10/18 04:02:01;;;;;;;7.47;4.40;;;15.80;99.90;;;;;;1934203;73;21151;-87
2022/10/18 04:07:31;;;;;;;7.30;4.53;;;15.60;99.90;;;;;;1946505;72;22135;-86
2022/10/18 04:13:01;;;;;;;4.15;3.30;;;15.60;99.90;;;;;;1948278;72;22232;-87
2022/10/18 04:18:30;;;;;;;7.72;3.80;;;15.60;99.90;;;;;;1956757;72;22254;-86
2022/10/18 04:24:02;;;;;;;5.75;4.00;;;15.70;99.90;;;;;;1954348;72;22168;-86
2022/10/18 04:26:53;;;;;;;7.62;4.08;;;15.70;99.90;;;;;;1887554;75;21126;-87
2022/10/18 04:32:28;;;;;;;7.85;4.58;;;15.60;99.90;;;;;;1927314;72;22132;-87
2022/10/18 04:38:04;;;;;;;5.05;4.40;;;15.60;99.90;;;;;;1959168;72;20131;-87
2022/10/18 04:40:55;;;;;;;7.33;4.97;;;15.60;99.90;;;;;;1932231;73;21141;-87
2022/10/18 04:43:46;;;;;;;6.90;5.87;;;15.60;99.90;;;;;;1930968;73;21129;-87
2022/10/18 04:52:32;;;;;;;10.93;8.13;;;15.70;99.90;;;;;;2002653;71;22261;-87
2022/10/18 04:55:23;;;;;;;11.15;7.20;;;15.70;99.90;;;;;;1963200;72;21040;-87
2022/10/18 04:58:15;;;;;;;7.03;6.33;;;15.70;99.90;;;;;;2032073;70;21080;-87
2022/10/18 05:01:07;;;;;;;8.60;6.45;;;15.70;99.90;;;;;;2053602;69;21489;-87
2022/10/18 05:06:39;;;;;;;8.00;7.20;;;15.70;99.90;;;;;;1941096;72;22253;-87
2022/10/18 05:12:10;;;;;;;8.65;7.30;;;15.70;99.90;;;;;;1939632;72;22197;-88
2022/10/18 05:17:41;;;;;;;9.80;7.00;;;15.70;99.90;;;;;;1925451;72;22165;-87
2022/10/18 05:23:15;;;;;;;8.65;5.40;;;15.70;99.90;;;;;;1934322;72;22190;-87
2022/10/18 05:26:07;;;;;;;8.65;5.33;;;15.60;99.90;;;;;;1902623;75;21168;-89
2022/10/18 05:28:59;;;;;;;7.97;5.15;;;15.60;99.90;;;;;;1898177;75;21155;-87
2022/10/18 05:31:50;;;;;;;9.40;5.95;;;15.60;99.90;;;;;;1897278;75;21052;-88
2022/10/18 05:34:42;;;;;;;6.78;5.55;;;15.60;99.90;;;;;;1906594;75;21086;-88
2022/10/18 05:37:33;;;;;;;7.90;5.58;;;15.60;99.90;;;;;;1902696;75;21138;-88
2022/10/18 05:43:04;;;;;;;9.30;6.45;;;15.50;99.90;;;;;;1943559;72;22562;-83
2022/10/18 05:45:55;;;;;;;9.73;6.55;;;15.60;99.90;;;;;;1884923;75;21495;-87
2022/10/18 05:48:50;;;;;;;10.72;7.72;;;15.60;99.90;;;;;;1886687;75;21181;-88
2022/10/18 05:51:42;;;;;;;9.38;6.90;;;15.60;99.90;;;;;;1892564;75;21099;-86
2022/10/18 05:57:13;;;;;;;9.20;6.87;;;15.60;99.90;;;;;;1918613;72;22713;-88
2022/10/18 06:00:08;;;;;;;8.60;6.37;;;15.60;99.90;;;;;;1905430;75;21559;-86
2022/10/18 06:03:00;;;;;;;7.80;5.92;;;15.60;99.90;;;;;;1899566;75;21096;-86
2022/10/18 06:05:51;;;;;;;12.90;6.45;;;15.60;99.90;;;;;;1901572;75;21105;-86
2022/10/18 06:08:44;;;;;;;9.60;6.70;;;15.60;99.90;;;;;;1904518;75;21123;-86
2022/10/18 06:11:36;;;;;;;8.90;6.37;;;15.60;99.90;;;;;;1911815;75;21138;-87
2022/10/18 06:14:28;;;;;;;9.65;6.25;;;15.60;99.90;;;;;;1907752;75;21189;-86
2022/10/18 06:17:19;;;;;;;8.40;6.15;;;15.60;99.90;;;;;;1903884;74;21050;-86
2022/10/18 06:20:13;;;;;;;10.72;5.90;;;15.50;99.90;;;;;;1916583;75;21152;-84
2022/10/18 06:23:04;;;;;;;6.72;5.08;;;15.60;99.90;;;;;;1917338;75;21104;-86
2022/10/18 06:25:59;;;;;;;10.48;5.42;;;15.60;99.90;;;;;;1912079;75;21046;-85
2022/10/18 06:28:50;;;;;;;6.58;4.83;;;15.60;99.90;;;;;;1897573;74;21106;-86
2022/10/18 06:31:41;;;;;;;7.55;4.92;;;15.60;99.90;;;;;;1892759;75;21065;-86
2022/10/18 06:37:16;;;;;;;9.28;5.75;;;15.60;99.90;;;;;;1941910;72;22177;-88
2022/10/18 06:40:11;;;;;;;9.20;5.30;;;15.70;99.90;;;;;;1924055;73;21098;-86
2022/10/18 06:45:48;;;;;;;11.38;5.65;;;15.70;99.90;;;;;;1923318;72;22292;-87
2022/10/18 06:48:39;;;;;;;10.38;5.35;;;15.80;99.90;;;;;;1884416;75;21216;-86
2022/10/18 06:51:31;;;;;;;6.78;5.20;;;15.80;99.90;;;;;;1883676;75;21103;-83
2022/10/18 06:54:23;;;;;;;10.45;5.00;;;15.80;99.90;;;;;;1904692;75;21054;-86
2022/10/18 06:57:14;;;;;;;6.50;5.40;;;15.90;99.90;;;;;;1907039;74;21051;-86
2022/10/18 07:02:48;;;;;;;10.05;6.87;;;15.90;99.90;;;;;;1947968;72;22169;-86
2022/10/18 07:08:19;;;;;;;8.25;6.15;;;16.00;99.90;;;;;;1948200;72;22239;-85
2022/10/18 07:11:14;;;;;;;11.53;6.25;;;16.10;99.90;;;;;;1934238;73;21098;-88
2022/10/18 07:14:05;;;;;;;10.63;6.40;;;16.10;99.90;;;;;;1917662;73;21083;-88
2022/10/18 07:16:59;;;;;;;16.37;6.60;;;16.20;99.90;;;;;;1929590;73;21086;-85
2022/10/18 07:22:43;;;;;;;7.72;4.95;;;16.30;99.90;;;;;;1934672;72;22173;-86
2022/10/18 07:25:34;;;;;;;8.83;5.12;;;16.30;99.90;;;;;;1888262;74;21506;-86
2022/10/18 07:28:25;;;;;;;8.60;5.40;;;16.40;99.90;;;;;;1882474;75;21125;-86
2022/10/18 07:31:17;;;;;;;8.73;5.53;;;16.40;99.90;;;;;;1898486;75;21846;-86
2022/10/18 07:34:11;;;;;;;7.70;5.28;;;16.50;99.90;;;;;;1897282;75;21110;-86
2022/10/18 07:37:03;;;;;;;7.15;4.80;;;16.60;99.90;;;;;;1907405;75;21181;-87
2022/10/18 07:39:54;;;;;;;9.48;5.50;;;16.60;99.90;;;;;;1894003;75;21162;-86
2022/10/18 07:42:45;;;;;;;12.58;5.37;;;16.60;99.90;;;;;;1911888;74;21175;-86
2022/10/18 07:48:15;;;;;;;7.00;5.12;;;16.70;99.90;;;;;;1939621;72;22239;-88
2022/10/18 07:51:07;;;;;;;7.30;5.12;;;16.80;99.90;;;;;;1884456;75;21059;-87
2022/10/18 07:53:58;;;;;;;9.03;5.97;;;16.80;99.90;;;;;;1886552;75;21151;-86
2022/10/18 07:56:49;;;;;;;8.30;6.22;;;16.90;99.90;;;;;;1906391;75;21051;-86
2022/10/18 07:59:40;;;;;;;8.73;5.97;;;16.90;99.90;;;;;;1893658;75;21176;-86
2022/10/18 08:02:31;;;;;;;12.63;6.05;;;16.90;99.90;;;;;;1891012;75;21156;-86
2022/10/18 08:08:00;;;;;;;11.90;6.15;;;17.00;99.90;;;;;;1944524;72;22197;-85
2022/10/18 08:10:53;;;;;;;9.03;5.55;;;17.10;99.90;;;;;;1891483;75;21145;-85
2022/10/18 08:13:45;;;;;;;10.75;5.55;;;17.10;99.90;;;;;;1893176;75;21237;-86
2022/10/18 08:16:36;;;;;;;9.78;5.33;;;17.20;99.90;;;;;;1902744;75;21121;-85
2022/10/18 08:19:27;;;;;;;12.15;4.92;;;17.20;99.90;;;;;;1885436;75;21109;-85
2022/10/18 08:22:18;;;;;;;9.35;4.58;;;17.20;99.90;;;;;;1902642;73;21145;-86
2022/10/18 08:27:48;;;;;;;11.15;4.95;;;17.40;99.90;;;;;;1931009;72;22260;-85
2022/10/18 08:30:39;;;;;;;7.47;4.60;;;17.40;99.90;;;;;;1870051;76;21218;-85
2022/10/18 08:33:30;;;;;;;8.28;4.42;;;17.50;99.90;;;;;;1849135;76;21132;-87
2022/10/18 08:36:22;;;;;;;14.35;4.53;;;17.60;99.90;;;;;;1848808;76;21065;-86
2022/10/18 08:39:13;;;;;;;8.63;4.60;;;17.60;99.90;;;;;;1863025;76;21058;-85
2022/10/18 08:42:37;;;;;;;7.67;4.67;;;17.70;99.90;;;;;;1896623;75;21096;-86
2022/10/18 08:45:29;;;;;;;10.63;5.72;;;17.80;99.90;;;;;;1904457;75;21137;-86
2022/10/18 08:48:25;;;;;;;8.63;5.20;;;17.80;99.90;;;;;;1897501;75;21111;-86
2022/10/18 08:51:19;;;;;;;7.33;4.08;;;17.90;99.90;;;;;;1890665;75;21550;-86
2022/10/18 08:54:14;;;;;;;8.83;4.42;;;18.00;99.90;;;;;;1883840;75;21560;-86
2022/10/18 08:57:09;;;;;;;9.00;5.33;;;18.10;99.90;;;;;;1901494;75;21058;-86
2022/10/18 09:00:01;;;;;;;9.90;5.53;;;18.10;99.90;;;;;;1893016;75;21154;-86
2022/10/18 09:03:04;;;;;;;10.55;4.75;;;18.20;99.90;;;;;;1887608;75;21213;-86
2022/10/18 09:06:01;;;;;;;7.47;4.53;;;18.30;99.90;;;;;;1894858;75;21062;-86
2022/10/18 09:09:05;;;;;;;6.08;4.50;;;18.30;99.90;;;;;;1891806;75;21138;-86
2022/10/18 09:12:01;;;;;;;8.20;4.15;;;18.30;99.90;;;;;;1903395;75;21115;-86
2022/10/18 09:15:13;;;;;;;9.40;4.95;;;18.50;99.90;;;;;;1894973;75;21123;-86
2022/10/18 09:18:20;;;;;;;7.62;4.47;;;18.50;99.90;;;;;;1883878;73;21585;-86
2022/10/18 09:21:19;;;;;;;9.70;5.15;;;18.50;99.90;;;;;;1907150;75;21221;-86
2022/10/18 09:24:14;;;;;;;10.03;4.60;;;18.60;99.90;;;;;;1896239;75;21167;-86
2022/10/18 09:27:08;;;;;;;7.47;5.35;;;18.70;99.90;;;;;;1895340;75;21546;-87
2022/10/18 09:32:46;;;;;;;7.67;4.87;;;18.80;99.90;;;;;;1947046;72;22106;-86
2022/10/18 09:35:41;;;;;;;7.12;4.70;;;18.80;99.90;;;;;;1936049;73;21063;-85
2022/10/18 09:38:36;;;;;;;9.30;5.22;;;18.90;99.90;;;;;;1917473;75;21141;-86
2022/10/18 09:44:12;;;;;;;11.05;4.58;;;19.00;99.90;;;;;;1945208;72;22142;-88
2022/10/18 09:47:06;;;;;;;5.37;4.15;;;19.20;99.90;;;;;;1925699;73;21162;-87
2022/10/18 09:50:00;;;;;;;7.75;4.75;;;19.20;99.90;;;;;;1917204;73;21320;-86
2022/10/18 09:52:55;;;;;;;6.53;4.83;;;19.30;99.90;;;;;;1917288;75;21061;-86
2022/10/18 09:55:55;;;;;;;7.83;4.40;;;19.30;99.90;;;;;;1929166;73;21106;-86
2022/10/18 09:58:47;;;;;;;11.83;4.80;;;19.40;99.90;;;;;;1920452;73;21518;-86
2022/10/18 10:01:39;;;;;;;11.05;4.50;;;19.50;99.90;;;;;;1940407;73;21080;-86
2022/10/18 10:04:30;;;;;;;8.10;4.67;;;19.50;99.90;;;;;;1937656;73;21097;-87
2022/10/18 10:07:26;;;;;;;7.67;4.45;;;19.60;99.90;;;;;;1936622;73;21457;-88
2022/10/18 10:10:21;;;;;;;8.17;3.97;;;19.60;99.90;;;;;;1917933;75;21171;-86
2022/10/18 10:13:21;;;;;;;7.40;4.60;;;19.70;99.90;;;;;;1917507;75;21174;-86
2022/10/18 10:16:11;;;;;;;7.22;4.28;;;19.80;99.90;;;;;;1917533;75;21655;-86
2022/10/18 10:19:02;;;;;;;7.90;4.17;;;19.80;99.90;;;;;;1917650;74;21848;-86
2022/10/18 10:22:07;;;;;;;7.92;4.03;;;19.90;99.90;;;;;;1917351;75;21103;-86
2022/10/18 10:24:59;;;;;;;13.08;4.35;;;20.00;99.90;;;;;;1917779;75;21047;-87
2022/10/18 10:27:50;;;;;;;7.08;4.22;;;20.10;99.90;;;;;;1921922;73;21132;-86
2022/10/18 10:30:41;;;;;;;7.28;3.85;;;20.10;99.90;;;;;;1929174;73;21122;-86
2022/10/18 10:33:35;;;;;;;11.48;4.65;;;20.20;99.90;;;;;;1917664;75;21594;-86
2022/10/18 10:36:26;;;;;;;7.95;4.00;;;20.20;99.90;;;;;;1917463;75;21064;-86
2022/10/18 10:39:20;;;;;;;8.48;4.67;;;20.30;99.90;;;;;;1917672;75;21059;-86
2022/10/18 10:42:14;;;;;;;7.25;4.70;;;20.30;99.90;;;;;;1917460;75;21125;-86
2022/10/18 10:45:12;;;;;;;10.63;4.42;;;20.40;99.90;;;;;;1936472;73;21167;-87
2022/10/18 10:48:07;;;;;;;6.50;4.00;;;20.50;99.90;;;;;;1951522;73;21109;-87
2022/10/18 10:51:01;;;;;;;8.80;4.22;;;20.60;99.90;;;;;;1928666;73;21054;-86
2022/10/18 10:53:59;;;;;;;11.53;4.17;;;20.60;99.90;;;;;;1928815;73;21154;-87
2022/10/18 10:56:56;;;;;;;6.55;4.15;;;20.60;99.90;;;;;;1925972;73;21072;-87
2022/10/18 10:59:49;;;;;;;7.35;4.33;;;20.60;99.90;;;;;;1916979;75;21107;-86
2022/10/18 11:02:41;;;;;;;7.28;4.33;;;20.70;99.90;;;;;;1933150;73;21126;-86
2022/10/18 11:05:43;;;;;;;10.10;4.53;;;20.70;99.90;;;;;;1917221;73;21109;-87
2022/10/18 11:08:38;;;;;;;9.40;4.22;;;20.70;99.90;;;;;;1916869;75;21171;-88
2022/10/18 11:11:32;;;;;;;8.98;4.72;;;20.80;99.90;;;;;;1916893;75;21558;-86
2022/10/18 11:14:26;;;;;;;6.45;4.28;;;20.90;99.90;;;;;;1916898;75;21059;-87
2022/10/18 11:17:24;;;;;;;6.53;4.62;;;20.90;99.90;;;;;;1916977;75;21180;-87
2022/10/18 11:20:22;;;;;;;10.98;5.20;;;21.00;99.90;;;;;;1916790;75;21118;-87
2022/10/18 11:23:13;;;;;;;;;;;21.10;99.90;;;;;;1920210;73;21168;-86
2022/10/18 11:26:21;;;;;;;12.82;5.55;;;21.20;99.90;;;;;;1939694;73;20115;-86
2022/10/18 11:29:15;;;;;;;;;;;21.20;99.90;;;;;;1919859;75;21128;-86
2022/10/18 11:32:10;;;;;;;9.70;5.22;;;21.30;99.90;;;;;;1917087;75;20413;-86
2022/10/18 11:35:13;;;;;;;10.40;5.17;;;21.30;99.90;;;;;;1916964;75;21581;-86
2022/10/18 11:38:15;;;;;;;7.22;4.72;;;21.40;99.90;;;;;;1939596;73;21159;-87
2022/10/18 11:41:22;;;;;;;9.48;4.70;;;21.50;99.90;;;;;;1916792;75;21106;-86
2022/10/18 11:44:17;;;;;;;7.37;4.35;;;21.60;99.90;;;;;;1917249;74;21182;-87
2022/10/18 11:47:13;;;;;;;10.23;4.00;;;21.70;99.90;;;;;;1912785;74;21188;-86
2022/10/18 11:50:15;;;;;;;6.83;4.00;;;21.60;99.90;;;;;;1920292;74;21134;-86
2022/10/18 11:53:12;;;;;;;7.08;4.33;;;21.60;99.90;;;;;;1849881;77;21067;-86
2022/10/18 11:56:08;;;;;;;5.75;4.05;;;21.70;99.90;;;;;;1911828;74;21567;-87
2022/10/18 11:59:09;;;;;;;9.70;3.67;;;21.70;99.90;;;;;;1912444;74;21055;-86
2022/10/18 12:02:16;;;;;;;9.28;3.52;;;21.80;99.90;;;;;;1911935;74;21075;-86
2022/10/18 12:05:09;;;;;;;7.42;3.77;;;21.90;99.90;;;;;;1910249;74;21111;-86
2022/10/18 12:08:05;;;;;;;7.33;3.83;;;21.90;99.90;;;;;;1911364;74;21615;-86
2022/10/18 12:11:00;;;;;;;8.48;3.95;;;22.10;99.90;;;;;;1907677;74;21333;-86
2022/10/18 12:13:56;;;;;;;8.43;3.25;;;22.10;99.90;;;;;;1902662;75;21067;-86
2022/10/18 12:16:48;;;;;;;6.12;3.05;;;22.10;99.90;;;;;;1902276;74;21084;-86
2022/10/18 12:19:42;;;;;;;11.85;4.00;;;22.20;99.90;;;;;;1918387;74;21102;-86
2022/10/18 12:22:38;;;;;;;11.80;3.90;;;22.30;99.90;;;;;;1939686;73;21046;-87
2022/10/18 12:25:30;;;;;;;13.90;4.47;;;22.30;99.90;;;;;;1914701;74;21180;-86
2022/10/18 12:28:26;;;;;;;13.50;4.50;;;22.30;99.90;;;;;;1914215;74;21125;-86
2022/10/18 12:31:24;;;;;;;9.70;3.33;;;22.20;99.90;;;;;;1905216;74;21593;-87
2022/10/18 12:34:30;;;;;;;10.03;3.87;;;22.30;99.90;;;;;;1918492;74;21102;-87
2022/10/18 12:37:57;;;;;;;5.70;3.22;;;22.30;99.90;;;;;;1902656;74;21130;-86
2022/10/18 12:40:51;;;;;;;6.25;3.15;;;22.40;99.90;;;;;;1905890;74;21199;-86
2022/10/18 12:43:46;;;;;;;10.60;3.47;;;22.40;99.90;;;;;;1910100;74;21165;-86
2022/10/18 12:46:49;;;;;;;8.10;3.52;;;22.50;99.90;;;;;;1906859;74;21078;-86
2022/10/18 12:49:40;;;;;;;6.85;2.83;;;22.60;99.90;;;;;;1904425;75;21144;-87
2022/10/18 12:52:36;;;;;;;10.82;3.25;;;22.60;99.90;;;;;;1916852;75;21060;-87
2022/10/18 12:55:33;;;;;;;10.03;3.15;;;22.70;99.90;;;;;;1904542;74;21229;-86
2022/10/18 12:58:31;;;;;;;11.67;3.53;;;22.90;99.90;;;;;;1904506;75;21041;-87
2022/10/18 13:01:24;;;;;;;6.00;2.52;;;23.00;99.90;;;;;;1904353;75;21146;-87
2022/10/18 13:04:35;;;;;;;4.45;2.30;;;23.00;99.90;;;;;;1916905;75;21121;-86
2022/10/18 13:07:44;;;;;;;4.33;2.40;;;22.90;99.90;;;;;;1916588;75;21102;-85
2022/10/18 13:10:37;;;;;;;6.78;3.02;;;23.00;99.90;;;;;;1916709;75;21553;-85
2022/10/18 13:13:49;;;;;;;8.23;2.35;;;23.10;99.90;;;;;;1916837;75;21062;-86
2022/10/18 13:16:45;;;;;;;6.28;2.12;;;23.20;99.90;;;;;;1904465;75;21051;-85
2022/10/18 13:19:39;;;;;;;6.10;2.27;;;23.20;99.90;;;;;;1904654;75;21056;-86
2022/10/18 13:22:39;;;;;;;8.65;2.62;;;23.30;99.90;;;;;;1917309;73;21565;-85
2022/10/18 13:25:35;;;;;;;4.55;2.40;;;23.40;99.90;;;;;;1904644;75;21615;-85
2022/10/18 13:28:31;;;;;;;3.67;2.12;;;23.40;99.90;;;;;;1916874;75;21167;-86
2022/10/18 13:31:25;;;;;;;5.22;1.90;;;23.50;99.90;;;;;;1916665;75;21168;-85
2022/10/18 13:34:29;;;;;;;4.85;2.37;;;23.60;99.90;;;;;;1917078;75;21113;-85
2022/10/18 13:37:25;;;;;;;6.05;2.30;;;23.60;99.90;;;;;;1916868;75;21121;-86
2022/10/18 13:40:23;;;;;;;6.33;2.33;;;23.60;99.90;;;;;;1904299;75;21102;-86
2022/10/18 13:44:08;;;;;;;3.85;2.40;;;23.60;99.90;;;;;;1916967;75;21051;-86
2022/10/18 13:47:34;;;;;;;7.10;2.55;;;23.70;99.90;;;;;;1890000;74;21066;-85
2022/10/18 13:50:34;;;;;;;4.23;2.10;;;23.80;99.90;;;;;;1926650;74;21109;-85
2022/10/18 13:53:48;;;;;;;5.78;2.25;;;23.80;99.90;;;;;;1949234;73;21112;-85
2022/10/18 13:56:51;;;;;;;6.45;2.62;;;23.90;99.90;;;;;;1926343;73;21129;-86
2022/10/18 14:00:11;;;;;;;3.62;2.05;;;23.90;99.90;;;;;;1946859;73;21594;-86
2022/10/18 14:03:16;;;;;;;3.77;1.98;;;23.90;99.90;;;;;;1948032;73;21538;-85
2022/10/18 14:06:13;;;;;;;3.95;2.33;;;24.00;99.90;;;;;;1926422;74;21167;-85
2022/10/18 14:09:08;;;;;;;4.83;2.50;;;24.00;99.90;;;;;;1926220;74;21149;-85
2022/10/18 14:12:05;;;;;;;6.17;2.33;;;24.10;99.90;;;;;;1925793;74;21074;-86
2022/10/18 14:15:00;;;;;;;5.90;2.25;;;24.10;99.90;;;;;;1926121;74;21060;-86
2022/10/18 14:17:58;;;;;;;2.75;2.02;;;24.20;99.90;;;;;;1949154;73;21164;-85
2022/10/18 14:20:53;;;;;;;4.58;2.40;;;24.80;99.90;;;;;;1926272;74;21097;-85
2022/10/18 14:23:47;;;;;;;3.60;2.30;;;24.80;99.90;;;;;;1926491;74;21201;-85
2022/10/18 14:26:38;;;;;;;3.62;2.35;;;24.60;99.90;;;;;;1926342;74;21115;-86
2022/10/18 14:29:30;;;;;;;5.42;2.62;;;24.50;99.90;;;;;;1949404;73;21209;-87
2022/10/18 14:32:30;;;;;;;3.42;2.02;;;24.40;99.90;;;;;;1926462;74;21098;-86
2022/10/18 14:35:24;;;;;;;3.60;2.22;;;24.40;99.90;;;;;;1944870;73;21054;-86
2022/10/18 14:38:17;;;;;;;3.17;2.22;;;24.30;99.90;;;;;;1926837;74;21125;-86
2022/10/18 14:41:20;;;;;;;3.65;2.12;;;24.30;99.90;;;;;;1926334;74;21110;-86
2022/10/18 14:44:20;;;;;;;6.05;2.30;;;24.30;99.90;;;;;;1926265;74;21110;-86
2022/10/18 14:47:17;;;;;;;4.87;2.25;;;24.30;99.90;;;;;;1927996;74;21144;-86
2022/10/18 14:50:22;;;;;;;2.58;2.00;;;24.30;99.90;;;;;;1932091;74;21105;-86
2022/10/18 14:53:19;;;;;;;5.22;2.70;;;24.30;99.90;;;;;;1930473;74;21058;-86
2022/10/18 14:56:18;;;;;;;4.42;2.02;;;24.20;99.90;;;;;;1920264;74;21172;-85
2022/10/18 14:59:15;;;;;;;6.20;2.22;;;24.20;99.90;;;;;;1918690;74;21055;-86
2022/10/18 15:02:12;;;;;;;7.62;2.20;;;24.20;99.90;;;;;;1920522;74;21837;-85
2022/10/18 15:05:09;;;;;;;4.40;2.17;;;24.10;99.90;;;;;;1921023;74;21467;-86
2022/10/18 15:08:01;;;;;;;4.42;2.35;;;24.10;99.90;;;;;;1911592;75;21125;-86
2022/10/18 15:10:53;;;;;;;3.25;2.12;;;24.10;99.90;;;;;;1920685;74;21062;-86
2022/10/18 15:13:48;;;;;;;3.35;2.08;;;24.10;99.90;;;;;;1918780;74;21109;-86
2022/10/18 15:16:40;;;;;;;3.15;2.10;;;24.00;99.90;;;;;;1915364;74;21136;-86
2022/10/18 15:19:35;;;;;;;4.12;2.20;;;24.10;99.90;;;;;;1925951;74;21156;-86
2022/10/18 15:22:27;;;;;;;3.45;2.33;;;24.10;99.90;;;;;;1920590;74;21208;-87
2022/10/18 15:25:23;;;;;;;3.95;2.50;;;24.20;99.90;;;;;;1926858;74;21063;-86
2022/10/18 15:28:25;;;;;;;2.92;2.00;;;24.20;99.90;;;;;;1919845;74;21090;-85
2022/10/18 15:31:23;;;;;;;3.08;1.90;;;24.40;99.90;;;;;;1915115;74;21155;-86
2022/10/18 15:34:19;;;;;;;4.47;2.20;;;25.60;99.90;;;;;;1911561;75;21112;-86
2022/10/18 15:37:32;;;;;;;4.75;1.98;;;26.20;99.90;;;;;;1925440;74;21564;-86
2022/10/18 15:40:37;;;;;;;4.72;2.10;;;26.80;99.90;;;;;;1925280;74;21118;-86
2022/10/18 15:43:36;;;;;;;3.65;2.52;;;26.80;99.90;;;;;;1920156;74;21165;-85
2022/10/18 15:46:32;;;;;;;3.65;2.20;;;26.90;99.90;;;;;;1928062;74;21505;-87
2022/10/18 15:50:01;;;;;;;4.45;2.37;;;27.00;99.90;;;;;;1916567;74;21075;-86
2022/10/18 15:52:53;;;;;;;3.90;2.30;;;27.30;99.90;;;;;;1916829;75;21526;-86
2022/10/18 15:55:51;;;;;;;5.00;2.33;;;27.20;99.90;;;;;;1916770;75;21114;-87
2022/10/18 15:58:45;;;;;;;4.25;2.42;;;26.90;99.90;;;;;;1939868;73;21173;-87
2022/10/18 16:01:43;;;;;;;5.15;2.47;;;26.00;99.90;;;;;;1917007;75;21604;-86
2022/10/18 16:04:36;;;;;;;4.15;2.42;;;25.30;99.90;;;;;;1917085;75;21470;-87
2022/10/18 16:07:27;;;;;;;3.83;2.50;;;24.70;99.90;;;;;;1931700;73;21139;-87
2022/10/18 16:10:19;;;;;;;2.87;2.22;;;24.30;99.90;;;;;;1918180;73;21107;-86
2022/10/18 16:13:11;;;;;;;4.97;2.20;;;24.00;99.90;;;;;;1917073;75;21128;-86
2022/10/18 16:16:03;;;;;;;4.40;2.40;;;23.80;99.90;;;;;;1916952;75;21180;-86
2022/10/18 16:18:54;;;;;;;3.77;2.37;;;23.70;99.90;;;;;;1916930;75;21503;-86
2022/10/18 16:21:46;;;;;;;2.42;2.20;;;23.50;99.90;;;;;;1916906;75;21109;-87
2022/10/18 16:24:37;;;;;;;4.35;2.20;;;23.30;99.90;;;;;;1917087;75;21066;-85
2022/10/18 16:27:29;;;;;;;5.85;2.10;;;23.30;99.90;;;;;;1939451;73;21136;-85
2022/10/18 16:30:22;;;;;;;3.72;2.35;;;23.20;99.90;;;;;;1916859;75;21095;-86
2022/10/18 16:33:13;;;;;;;7.00;2.75;;;23.10;99.90;;;;;;1917055;75;21051;-86
2022/10/18 16:36:08;;;;;;;7.72;3.10;;;23.00;99.90;;;;;;1916904;75;21103;-85
2022/10/18 16:39:03;;;;;;;7.30;3.47;;;22.90;99.90;;;;;;1916865;75;21565;-86
2022/10/18 16:41:54;;;;;;;3.62;2.55;;;22.70;99.90;;;;;;1916790;75;21058;-86